sensor_id;sensor_type;location;lat;lon;timestamp;P1;durP1;ratioP1;P2;durP2;ratioP2
6133;SDS011;3098;42.678;23.364;2022-09-03T00:02:18;12.93;;;7.97;;
6133;SDS011;3098;42.678;23.364;2022-09-03T00:04:52;12.77;;;7.53;;
6133;SDS011;3098;42.678;23.364;2022-09-03T00:07:29;14.18;;;7.70;;
6133;SDS011;3098;42.678;23.364;2022-09-03T00:10:03;14.07;;;8.48;;
6133;SDS011;3098;42.678;23.364;2022-09-03T00:12:35;13.43;;;7.72;;
6133;SDS011;3098;42.678;23.364;2022-09-03T00:15:06;11.18;;;7.60;;
6133;SDS011;3098;42.678;23.364;2022-09-03T00:17:38;13.48;;;7.13;;
6133;SDS011;3098;42.678;23.364;2022-09-03T00:20:09;13.73;;;7.75;;
6133;SDS011;3098;42.678;23.364;2022-09-03T00:22:42;13.68;;;7.57;;
6133;SDS011;3098;42.678;23.364;2022-09-03T00:25:13;11.13;;;7.53;;
6133;SDS011;3098;42.678;23.364;2022-09-03T00:27:43;14.15;;;7.55;;
6133;SDS011;3098;42.678;23.364;2022-09-03T00:30:15;14.18;;;7.50;;
6133;SDS011;3098;42.678;23.364;2022-09-03T00:32:43;11.85;;;7.60;;
6133;SDS011;3098;42.678;23.364;2022-09-03T00:35:15;12.80;;;7.88;;
6133;SDS011;3098;42.678;23.364;2022-09-03T00:37:48;17.35;;;7.13;;
6133;SDS011;3098;42.678;23.364;2022-09-03T00:40:32;19.40;;;7.38;;
6133;SDS011;3098;42.678;23.364;2022-09-03T00:43:10;23.23;;;7.72;;
6133;SDS011;3098;42.678;23.364;2022-09-03T00:45:48;15.75;;;6.80;;
6133;SDS011;3098;42.678;23.364;2022-09-03T00:48:24;14.52;;;5.90;;
6133;SDS011;3098;42.678;23.364;2022-09-03T00:51:08;12.23;;;5.75;;
6133;SDS011;3098;42.678;23.364;2022-09-03T00:53:47;9.23;;;4.85;;
6133;SDS011;3098;42.678;23.364;2022-09-03T00:56:24;7.63;;;4.38;;
6133;SDS011;3098;42.678;23.364;2022-09-03T00:59:06;7.55;;;4.07;;
6133;SDS011;3098;42.678;23.364;2022-09-03T01:01:44;5.97;;;3.92;;
6133;SDS011;3098;42.678;23.364;2022-09-03T01:04:26;7.45;;;3.72;;
6133;SDS011;3098;42.678;23.364;2022-09-03T01:07:01;6.13;;;3.75;;
6133;SDS011;3098;42.678;23.364;2022-09-03T01:09:40;10.63;;;4.50;;
6133;SDS011;3098;42.678;23.364;2022-09-03T01:12:17;8.43;;;4.70;;
6133;SDS011;3098;42.678;23.364;2022-09-03T01:14:53;11.70;;;4.63;;
6133;SDS011;3098;42.678;23.364;2022-09-03T01:17:31;7.35;;;3.95;;
6133;SDS011;3098;42.678;23.364;2022-09-03T01:29:15;6.35;;;4.47;;
6133;SDS011;3098;42.678;23.364;2022-09-03T01:31:52;8.68;;;4.78;;
6133;SDS011;3098;42.678;23.364;2022-09-03T01:34:30;7.55;;;4.53;;
6133;SDS011;3098;42.678;23.364;2022-09-03T01:37:08;8.13;;;4.22;;
6133;SDS011;3098;42.678;23.364;2022-09-03T01:39:43;6.55;;;4.32;;
6133;SDS011;3098;42.678;23.364;2022-09-03T01:42:23;9.45;;;4.82;;
6133;SDS011;3098;42.678;23.364;2022-09-03T01:45:01;9.43;;;4.72;;
6133;SDS011;3098;42.678;23.364;2022-09-03T01:48:03;9.25;;;5.05;;
6133;SDS011;3098;42.678;23.364;2022-09-03T01:50:45;8.25;;;4.15;;
6133;SDS011;3098;42.678;23.364;2022-09-03T01:53:27;8.52;;;4.43;;
6133;SDS011;3098;42.678;23.364;2022-09-03T01:56:14;8.23;;;4.65;;
6133;SDS011;3098;42.678;23.364;2022-09-03T01:58:51;5.18;;;3.67;;
6133;SDS011;3098;42.678;23.364;2022-09-03T02:01:29;6.25;;;4.10;;
6133;SDS011;3098;42.678;23.364;2022-09-03T02:04:11;7.38;;;3.80;;
6133;SDS011;3098;42.678;23.364;2022-09-03T02:06:42;10.45;;;4.53;;
6133;SDS011;3098;42.678;23.364;2022-09-03T02:09:12;7.60;;;4.38;;
6133;SDS011;3098;42.678;23.364;2022-09-03T02:11:39;6.38;;;4.13;;
6133;SDS011;3098;42.678;23.364;2022-09-03T02:14:08;8.02;;;4.47;;
6133;SDS011;3098;42.678;23.364;2022-09-03T02:16:36;6.40;;;4.25;;
6133;SDS011;3098;42.678;23.364;2022-09-03T02:19:08;8.43;;;4.57;;
6133;SDS011;3098;42.678;23.364;2022-09-03T02:21:38;7.78;;;4.80;;
6133;SDS011;3098;42.678;23.364;2022-09-03T02:24:10;7.68;;;3.97;;
6133;SDS011;3098;42.678;23.364;2022-09-03T02:26:38;6.43;;;4.05;;
6133;SDS011;3098;42.678;23.364;2022-09-03T02:29:05;11.10;;;5.10;;
6133;SDS011;3098;42.678;23.364;2022-09-03T02:31:32;11.73;;;5.30;;
6133;SDS011;3098;42.678;23.364;2022-09-03T02:34:00;8.75;;;4.18;;
6133;SDS011;3098;42.678;23.364;2022-09-03T02:36:28;11.90;;;5.35;;
6133;SDS011;3098;42.678;23.364;2022-09-03T02:38:58;7.70;;;4.75;;
6133;SDS011;3098;42.678;23.364;2022-09-03T02:41:25;7.38;;;3.92;;
6133;SDS011;3098;42.678;23.364;2022-09-03T02:43:53;7.80;;;4.18;;
6133;SDS011;3098;42.678;23.364;2022-09-03T02:46:26;13.55;;;4.13;;
6133;SDS011;3098;42.678;23.364;2022-09-03T02:49:00;6.47;;;4.05;;
6133;SDS011;3098;42.678;23.364;2022-09-03T02:51:30;8.40;;;4.07;;
6133;SDS011;3098;42.678;23.364;2022-09-03T02:53:58;10.00;;;4.53;;
6133;SDS011;3098;42.678;23.364;2022-09-03T02:56:25;6.22;;;3.85;;
6133;SDS011;3098;42.678;23.364;2022-09-03T02:58:53;7.15;;;3.80;;
6133;SDS011;3098;42.678;23.364;2022-09-03T03:01:22;6.00;;;3.72;;
6133;SDS011;3098;42.678;23.364;2022-09-03T03:03:50;7.13;;;4.28;;
6133;SDS011;3098;42.678;23.364;2022-09-03T03:06:18;7.72;;;4.10;;
6133;SDS011;3098;42.678;23.364;2022-09-03T03:08:46;8.20;;;4.60;;
6133;SDS011;3098;42.678;23.364;2022-09-03T03:11:12;8.23;;;4.38;;
6133;SDS011;3098;42.678;23.364;2022-09-03T03:13:42;7.65;;;3.88;;
6133;SDS011;3098;42.678;23.364;2022-09-03T03:16:11;9.07;;;4.63;;
6133;SDS011;3098;42.678;23.364;2022-09-03T03:18:39;8.90;;;4.43;;
6133;SDS011;3098;42.678;23.364;2022-09-03T03:21:07;8.27;;;3.70;;
6133;SDS011;3098;42.678;23.364;2022-09-03T03:23:37;8.75;;;4.68;;
6133;SDS011;3098;42.678;23.364;2022-09-03T03:26:05;8.77;;;4.13;;
6133;SDS011;3098;42.678;23.364;2022-09-03T03:28:35;7.40;;;4.60;;
6133;SDS011;3098;42.678;23.364;2022-09-03T03:31:05;8.95;;;4.10;;
6133;SDS011;3098;42.678;23.364;2022-09-03T03:33:32;7.93;;;3.92;;
6133;SDS011;3098;42.678;23.364;2022-09-03T03:36:02;7.00;;;4.13;;
6133;SDS011;3098;42.678;23.364;2022-09-03T03:38:31;12.40;;;4.80;;
6133;SDS011;3098;42.678;23.364;2022-09-03T03:41:05;7.50;;;3.97;;
6133;SDS011;3098;42.678;23.364;2022-09-03T03:43:32;7.38;;;3.88;;
6133;SDS011;3098;42.678;23.364;2022-09-03T03:46:00;6.97;;;4.25;;
6133;SDS011;3098;42.678;23.364;2022-09-03T03:48:27;8.55;;;4.32;;
6133;SDS011;3098;42.678;23.364;2022-09-03T03:50:54;6.55;;;4.15;;
6133;SDS011;3098;42.678;23.364;2022-09-03T03:53:21;7.10;;;4.03;;
6133;SDS011;3098;42.678;23.364;2022-09-03T03:55:57;7.53;;;3.80;;
6133;SDS011;3098;42.678;23.364;2022-09-03T03:58:26;6.72;;;3.97;;
6133;SDS011;3098;42.678;23.364;2022-09-03T04:01:02;8.02;;;4.30;;
6133;SDS011;3098;42.678;23.364;2022-09-03T04:03:30;5.20;;;3.92;;
6133;SDS011;3098;42.678;23.364;2022-09-03T04:05:57;8.35;;;4.10;;
6133;SDS011;3098;42.678;23.364;2022-09-03T04:08:27;13.40;;;4.82;;
6133;SDS011;3098;42.678;23.364;2022-09-03T04:10:59;4.95;;;3.33;;
6133;SDS011;3098;42.678;23.364;2022-09-03T04:13:27;7.65;;;3.90;;
6133;SDS011;3098;42.678;23.364;2022-09-03T04:15:59;9.88;;;4.38;;
6133;SDS011;3098;42.678;23.364;2022-09-03T04:18:26;9.07;;;4.32;;
6133;SDS011;3098;42.678;23.364;2022-09-03T04:20:57;6.38;;;3.50;;
6133;SDS011;3098;42.678;23.364;2022-09-03T04:23:28;8.35;;;4.15;;
6133;SDS011;3098;42.678;23.364;2022-09-03T04:25:56;9.57;;;4.13;;
6133;SDS011;3098;42.678;23.364;2022-09-03T04:28:25;6.82;;;3.92;;
6133;SDS011;3098;42.678;23.364;2022-09-03T04:30:52;8.18;;;4.05;;
6133;SDS011;3098;42.678;23.364;2022-09-03T04:33:19;7.20;;;3.90;;
6133;SDS011;3098;42.678;23.364;2022-09-03T04:35:50;8.13;;;3.88;;
6133;SDS011;3098;42.678;23.364;2022-09-03T04:38:17;8.75;;;3.83;;
6133;SDS011;3098;42.678;23.364;2022-09-03T04:40:50;5.57;;;3.65;;
6133;SDS011;3098;42.678;23.364;2022-09-03T04:43:18;7.47;;;4.03;;
6133;SDS011;3098;42.678;23.364;2022-09-03T04:45:46;6.45;;;3.25;;
6133;SDS011;3098;42.678;23.364;2022-09-03T04:48:13;8.88;;;4.25;;
6133;SDS011;3098;42.678;23.364;2022-09-03T04:50:40;12.05;;;4.75;;
6133;SDS011;3098;42.678;23.364;2022-09-03T04:53:07;12.32;;;4.72;;
6133;SDS011;3098;42.678;23.364;2022-09-03T04:55:34;5.78;;;3.63;;
6133;SDS011;3098;42.678;23.364;2022-09-03T04:58:02;9.27;;;4.57;;
6133;SDS011;3098;42.678;23.364;2022-09-03T05:00:32;6.72;;;4.15;;
6133;SDS011;3098;42.678;23.364;2022-09-03T05:03:02;8.30;;;3.95;;
6133;SDS011;3098;42.678;23.364;2022-09-03T05:05:30;8.90;;;4.47;;
6133;SDS011;3098;42.678;23.364;2022-09-03T05:07:57;7.05;;;4.22;;
6133;SDS011;3098;42.678;23.364;2022-09-03T05:10:26;6.25;;;3.92;;
6133;SDS011;3098;42.678;23.364;2022-09-03T05:12:56;6.40;;;3.90;;
6133;SDS011;3098;42.678;23.364;2022-09-03T05:15:24;6.40;;;3.75;;
6133;SDS011;3098;42.678;23.364;2022-09-03T05:17:54;8.30;;;4.35;;
6133;SDS011;3098;42.678;23.364;2022-09-03T05:20:23;7.35;;;3.38;;
6133;SDS011;3098;42.678;23.364;2022-09-03T05:22:51;5.70;;;3.47;;
6133;SDS011;3098;42.678;23.364;2022-09-03T05:25:18;9.20;;;4.53;;
6133;SDS011;3098;42.678;23.364;2022-09-03T05:27:45;8.15;;;4.38;;
6133;SDS011;3098;42.678;23.364;2022-09-03T05:30:12;7.28;;;4.22;;
6133;SDS011;3098;42.678;23.364;2022-09-03T05:32:39;6.57;;;3.67;;
6133;SDS011;3098;42.678;23.364;2022-09-03T05:35:07;4.70;;;3.22;;
6133;SDS011;3098;42.678;23.364;2022-09-03T05:37:36;7.75;;;3.92;;
6133;SDS011;3098;42.678;23.364;2022-09-03T05:40:04;6.25;;;3.58;;
6133;SDS011;3098;42.678;23.364;2022-09-03T05:42:35;7.72;;;3.17;;
6133;SDS011;3098;42.678;23.364;2022-09-03T05:45:02;6.72;;;3.38;;
6133;SDS011;3098;42.678;23.364;2022-09-03T05:47:34;7.88;;;3.97;;
6133;SDS011;3098;42.678;23.364;2022-09-03T05:50:02;6.57;;;3.42;;
6133;SDS011;3098;42.678;23.364;2022-09-03T05:52:31;7.10;;;3.92;;
6133;SDS011;3098;42.678;23.364;2022-09-03T05:54:59;4.65;;;3.50;;
6133;SDS011;3098;42.678;23.364;2022-09-03T05:57:26;6.82;;;3.97;;
6133;SDS011;3098;42.678;23.364;2022-09-03T05:59:53;5.80;;;3.50;;
6133;SDS011;3098;42.678;23.364;2022-09-03T06:02:21;11.02;;;3.47;;
6133;SDS011;3098;42.678;23.364;2022-09-03T06:04:47;8.93;;;3.50;;
6133;SDS011;3098;42.678;23.364;2022-09-03T06:07:15;7.03;;;4.05;;
6133;SDS011;3098;42.678;23.364;2022-09-03T06:09:42;6.95;;;3.33;;
6133;SDS011;3098;42.678;23.364;2022-09-03T06:12:11;7.18;;;3.97;;
6133;SDS011;3098;42.678;23.364;2022-09-03T06:14:38;6.63;;;3.42;;
6133;SDS011;3098;42.678;23.364;2022-09-03T06:17:05;7.75;;;3.70;;
6133;SDS011;3098;42.678;23.364;2022-09-03T06:19:35;10.55;;;4.45;;
6133;SDS011;3098;42.678;23.364;2022-09-03T06:22:03;5.82;;;3.50;;
6133;SDS011;3098;42.678;23.364;2022-09-03T06:24:29;6.95;;;3.65;;
6133;SDS011;3098;42.678;23.364;2022-09-03T06:26:57;6.22;;;3.92;;
6133;SDS011;3098;42.678;23.364;2022-09-03T06:29:25;8.13;;;3.53;;
6133;SDS011;3098;42.678;23.364;2022-09-03T06:31:53;9.70;;;3.92;;
6133;SDS011;3098;42.678;23.364;2022-09-03T06:34:21;6.70;;;3.60;;
6133;SDS011;3098;42.678;23.364;2022-09-03T06:36:49;9.70;;;5.18;;
6133;SDS011;3098;42.678;23.364;2022-09-03T06:39:16;7.22;;;4.05;;
6133;SDS011;3098;42.678;23.364;2022-09-03T06:41:43;6.72;;;3.42;;
6133;SDS011;3098;42.678;23.364;2022-09-03T06:44:15;8.52;;;4.03;;
6133;SDS011;3098;42.678;23.364;2022-09-03T06:46:44;5.05;;;3.65;;
6133;SDS011;3098;42.678;23.364;2022-09-03T06:49:13;7.07;;;3.97;;
6133;SDS011;3098;42.678;23.364;2022-09-03T06:51:40;6.95;;;4.00;;
6133;SDS011;3098;42.678;23.364;2022-09-03T06:54:09;7.07;;;2.85;;
6133;SDS011;3098;42.678;23.364;2022-09-03T06:56:37;6.35;;;3.30;;
6133;SDS011;3098;42.678;23.364;2022-09-03T06:59:06;8.88;;;4.78;;
6133;SDS011;3098;42.678;23.364;2022-09-03T07:01:34;6.45;;;3.92;;
6133;SDS011;3098;42.678;23.364;2022-09-03T07:04:06;6.68;;;3.50;;
6133;SDS011;3098;42.678;23.364;2022-09-03T07:06:34;7.97;;;4.07;;
6133;SDS011;3098;42.678;23.364;2022-09-03T07:09:04;8.40;;;4.40;;
6133;SDS011;3098;42.678;23.364;2022-09-03T07:11:32;4.32;;;3.00;;
6133;SDS011;3098;42.678;23.364;2022-09-03T07:14:00;7.47;;;3.50;;
6133;SDS011;3098;42.678;23.364;2022-09-03T07:16:28;5.85;;;3.38;;
6133;SDS011;3098;42.678;23.364;2022-09-03T07:19:00;4.72;;;2.97;;
6133;SDS011;3098;42.678;23.364;2022-09-03T07:21:30;4.97;;;3.17;;
6133;SDS011;3098;42.678;23.364;2022-09-03T07:24:01;5.60;;;3.33;;
6133;SDS011;3098;42.678;23.364;2022-09-03T07:26:30;7.10;;;3.85;;
6133;SDS011;3098;42.678;23.364;2022-09-03T07:29:02;5.05;;;3.10;;
6133;SDS011;3098;42.678;23.364;2022-09-03T07:31:31;5.72;;;3.15;;
6133;SDS011;3098;42.678;23.364;2022-09-03T07:34:00;8.70;;;4.22;;
6133;SDS011;3098;42.678;23.364;2022-09-03T07:36:35;6.53;;;3.45;;
6133;SDS011;3098;42.678;23.364;2022-09-03T07:39:04;5.38;;;3.33;;
6133;SDS011;3098;42.678;23.364;2022-09-03T07:41:31;5.32;;;3.28;;
6133;SDS011;3098;42.678;23.364;2022-09-03T07:43:58;6.20;;;3.22;;
6133;SDS011;3098;42.678;23.364;2022-09-03T07:46:31;5.43;;;3.40;;
6133;SDS011;3098;42.678;23.364;2022-09-03T07:49:00;8.10;;;4.13;;
6133;SDS011;3098;42.678;23.364;2022-09-03T07:51:28;7.07;;;3.50;;
6133;SDS011;3098;42.678;23.364;2022-09-03T07:53:58;5.32;;;3.60;;
6133;SDS011;3098;42.678;23.364;2022-09-03T07:56:28;5.80;;;3.33;;
6133;SDS011;3098;42.678;23.364;2022-09-03T07:58:56;6.13;;;3.55;;
6133;SDS011;3098;42.678;23.364;2022-09-03T08:01:24;5.60;;;2.95;;
6133;SDS011;3098;42.678;23.364;2022-09-03T08:03:55;5.82;;;3.53;;
6133;SDS011;3098;42.678;23.364;2022-09-03T08:06:23;4.53;;;3.22;;
6133;SDS011;3098;42.678;23.364;2022-09-03T08:08:53;5.88;;;3.33;;
6133;SDS011;3098;42.678;23.364;2022-09-03T08:11:25;6.85;;;3.95;;
6133;SDS011;3098;42.678;23.364;2022-09-03T08:13:53;4.40;;;3.28;;
6133;SDS011;3098;42.678;23.364;2022-09-03T08:16:25;4.82;;;3.50;;
6133;SDS011;3098;42.678;23.364;2022-09-03T08:18:53;12.88;;;3.35;;
6133;SDS011;3098;42.678;23.364;2022-09-03T08:21:21;5.32;;;3.22;;
6133;SDS011;3098;42.678;23.364;2022-09-03T08:23:50;6.70;;;3.75;;
6133;SDS011;3098;42.678;23.364;2022-09-03T08:26:19;5.57;;;3.28;;
6133;SDS011;3098;42.678;23.364;2022-09-03T08:28:51;5.32;;;3.15;;
6133;SDS011;3098;42.678;23.364;2022-09-03T08:31:19;7.22;;;3.88;;
6133;SDS011;3098;42.678;23.364;2022-09-03T08:33:49;5.90;;;2.85;;
6133;SDS011;3098;42.678;23.364;2022-09-03T08:36:18;4.25;;;3.00;;
6133;SDS011;3098;42.678;23.364;2022-09-03T08:38:50;4.97;;;3.15;;
6133;SDS011;3098;42.678;23.364;2022-09-03T08:41:19;7.03;;;3.15;;
6133;SDS011;3098;42.678;23.364;2022-09-03T08:44:01;5.80;;;3.13;;
6133;SDS011;3098;42.678;23.364;2022-09-03T08:46:44;4.35;;;3.20;;
6133;SDS011;3098;42.678;23.364;2022-09-03T08:49:18;9.15;;;3.40;;
6133;SDS011;3098;42.678;23.364;2022-09-03T08:51:50;6.60;;;3.10;;
6133;SDS011;3098;42.678;23.364;2022-09-03T08:54:23;3.72;;;3.30;;
6133;SDS011;3098;42.678;23.364;2022-09-03T08:56:54;6.45;;;3.00;;
6133;SDS011;3098;42.678;23.364;2022-09-03T08:59:28;3.75;;;2.83;;
6133;SDS011;3098;42.678;23.364;2022-09-03T09:01:58;5.35;;;3.33;;
6133;SDS011;3098;42.678;23.364;2022-09-03T09:04:35;4.32;;;3.05;;
6133;SDS011;3098;42.678;23.364;2022-09-03T09:07:12;5.03;;;3.03;;
6133;SDS011;3098;42.678;23.364;2022-09-03T09:09:45;4.75;;;2.97;;
6133;SDS011;3098;42.678;23.364;2022-09-03T09:12:18;6.45;;;2.90;;
6133;SDS011;3098;42.678;23.364;2022-09-03T09:15:02;4.47;;;3.10;;
6133;SDS011;3098;42.678;23.364;2022-09-03T09:17:36;6.57;;;3.40;;
6133;SDS011;3098;42.678;23.364;2022-09-03T09:20:17;5.45;;;3.42;;
6133;SDS011;3098;42.678;23.364;2022-09-03T09:22:53;3.70;;;2.60;;
6133;SDS011;3098;42.678;23.364;2022-09-03T09:25:26;3.70;;;2.95;;
6133;SDS011;3098;42.678;23.364;2022-09-03T09:27:58;4.47;;;3.17;;
6133;SDS011;3098;42.678;23.364;2022-09-03T09:30:28;5.43;;;3.22;;
6133;SDS011;3098;42.678;23.364;2022-09-03T09:32:57;4.72;;;3.33;;
6133;SDS011;3098;42.678;23.364;2022-09-03T09:35:24;5.75;;;3.33;;
6133;SDS011;3098;42.678;23.364;2022-09-03T09:37:52;4.45;;;3.05;;
6133;SDS011;3098;42.678;23.364;2022-09-03T09:40:26;4.78;;;2.50;;
6133;SDS011;3098;42.678;23.364;2022-09-03T09:43:07;3.63;;;2.67;;
6133;SDS011;3098;42.678;23.364;2022-09-03T09:45:38;5.45;;;3.55;;
6133;SDS011;3098;42.678;23.364;2022-09-03T09:48:13;8.68;;;5.55;;
6133;SDS011;3098;42.678;23.364;2022-09-03T09:50:46;5.80;;;3.58;;
6133;SDS011;3098;42.678;23.364;2022-09-03T09:53:13;5.80;;;3.13;;
6133;SDS011;3098;42.678;23.364;2022-09-03T09:55:52;4.93;;;3.40;;
6133;SDS011;3098;42.678;23.364;2022-09-03T09:58:20;4.75;;;3.40;;
6133;SDS011;3098;42.678;23.364;2022-09-03T10:00:57;6.05;;;3.05;;
6133;SDS011;3098;42.678;23.364;2022-09-03T10:03:28;4.43;;;3.40;;
6133;SDS011;3098;42.678;23.364;2022-09-03T10:06:03;3.88;;;2.70;;
6133;SDS011;3098;42.678;23.364;2022-09-03T10:08:46;4.93;;;3.08;;
6133;SDS011;3098;42.678;23.364;2022-09-03T10:11:13;5.10;;;3.40;;
6133;SDS011;3098;42.678;23.364;2022-09-03T10:13:42;5.07;;;3.53;;
6133;SDS011;3098;42.678;23.364;2022-09-03T10:16:18;4.40;;;3.17;;
6133;SDS011;3098;42.678;23.364;2022-09-03T10:18:53;4.47;;;3.33;;
6133;SDS011;3098;42.678;23.364;2022-09-03T10:21:28;4.40;;;2.75;;
6133;SDS011;3098;42.678;23.364;2022-09-03T10:23:59;4.72;;;3.42;;
6133;SDS011;3098;42.678;23.364;2022-09-03T10:26:40;4.50;;;3.28;;
6133;SDS011;3098;42.678;23.364;2022-09-03T10:29:09;6.00;;;3.55;;
6133;SDS011;3098;42.678;23.364;2022-09-03T10:31:44;6.05;;;3.33;;
6133;SDS011;3098;42.678;23.364;2022-09-03T10:34:21;6.35;;;3.08;;
6133;SDS011;3098;42.678;23.364;2022-09-03T10:37:02;5.53;;;3.67;;
6133;SDS011;3098;42.678;23.364;2022-09-03T10:39:44;5.07;;;3.45;;
6133;SDS011;3098;42.678;23.364;2022-09-03T10:42:19;4.72;;;3.10;;
6133;SDS011;3098;42.678;23.364;2022-09-03T10:45:07;3.70;;;2.78;;
6133;SDS011;3098;42.678;23.364;2022-09-03T10:47:52;3.90;;;2.97;;
6133;SDS011;3098;42.678;23.364;2022-09-03T10:50:44;3.28;;;2.95;;
6133;SDS011;3098;42.678;23.364;2022-09-03T10:53:18;4.25;;;3.30;;
6133;SDS011;3098;42.678;23.364;2022-09-03T10:55:55;4.30;;;3.17;;
6133;SDS011;3098;42.678;23.364;2022-09-03T10:58:31;3.97;;;3.08;;
6133;SDS011;3098;42.678;23.364;2022-09-03T11:01:09;5.63;;;3.40;;
6133;SDS011;3098;42.678;23.364;2022-09-03T11:03:48;3.38;;;2.85;;
6133;SDS011;3098;42.678;23.364;2022-09-03T11:06:26;6.40;;;4.10;;
6133;SDS011;3098;42.678;23.364;2022-09-03T11:08:56;3.92;;;2.83;;
6133;SDS011;3098;42.678;23.364;2022-09-03T11:11:29;4.45;;;2.70;;
6133;SDS011;3098;42.678;23.364;2022-09-03T11:14:01;8.48;;;4.28;;
6133;SDS011;3098;42.678;23.364;2022-09-03T11:16:34;4.30;;;2.80;;
6133;SDS011;3098;42.678;23.364;2022-09-03T11:19:07;4.32;;;2.92;;
6133;SDS011;3098;42.678;23.364;2022-09-03T11:21:37;3.35;;;2.63;;
6133;SDS011;3098;42.678;23.364;2022-09-03T11:24:09;4.03;;;2.83;;
6133;SDS011;3098;42.678;23.364;2022-09-03T11:26:40;5.97;;;3.45;;
6133;SDS011;3098;42.678;23.364;2022-09-03T11:29:11;4.00;;;2.78;;
6133;SDS011;3098;42.678;23.364;2022-09-03T11:31:44;4.70;;;2.83;;
6133;SDS011;3098;42.678;23.364;2022-09-03T11:34:27;2.95;;;2.25;;
6133;SDS011;3098;42.678;23.364;2022-09-03T11:37:06;6.60;;;2.80;;
6133;SDS011;3098;42.678;23.364;2022-09-03T11:39:43;5.50;;;3.15;;
6133;SDS011;3098;42.678;23.364;2022-09-03T11:42:22;3.97;;;3.05;;
6133;SDS011;3098;42.678;23.364;2022-09-03T11:44:58;3.58;;;2.47;;
6133;SDS011;3098;42.678;23.364;2022-09-03T11:47:38;4.03;;;2.75;;
6133;SDS011;3098;42.678;23.364;2022-09-03T11:50:16;5.18;;;3.42;;
6133;SDS011;3098;42.678;23.364;2022-09-03T11:52:46;5.65;;;3.47;;
6133;SDS011;3098;42.678;23.364;2022-09-03T11:55:25;6.20;;;3.30;;
6133;SDS011;3098;42.678;23.364;2022-09-03T11:57:55;4.10;;;2.78;;
6133;SDS011;3098;42.678;23.364;2022-09-03T12:00:23;5.47;;;3.35;;
6133;SDS011;3098;42.678;23.364;2022-09-03T12:02:51;6.65;;;3.33;;
6133;SDS011;3098;42.678;23.364;2022-09-03T12:05:25;5.72;;;3.10;;
6133;SDS011;3098;42.678;23.364;2022-09-03T12:08:18;4.72;;;3.17;;
6133;SDS011;3098;42.678;23.364;2022-09-03T12:11:05;4.68;;;2.92;;
6133;SDS011;3098;42.678;23.364;2022-09-03T12:13:47;4.60;;;3.03;;
6133;SDS011;3098;42.678;23.364;2022-09-03T12:19:26;4.60;;;2.40;;
6133;SDS011;3098;42.678;23.364;2022-09-03T12:22:03;5.93;;;3.97;;
6133;SDS011;3098;42.678;23.364;2022-09-03T12:24:30;5.45;;;3.20;;
6133;SDS011;3098;42.678;23.364;2022-09-03T12:26:59;3.97;;;3.15;;
6133;SDS011;3098;42.678;23.364;2022-09-03T12:29:28;5.68;;;3.55;;
6133;SDS011;3098;42.678;23.364;2022-09-03T12:32:04;6.15;;;3.30;;
6133;SDS011;3098;42.678;23.364;2022-09-03T12:34:33;4.68;;;3.10;;
6133;SDS011;3098;42.678;23.364;2022-09-03T12:37:00;5.05;;;3.42;;
6133;SDS011;3098;42.678;23.364;2022-09-03T12:39:29;5.00;;;3.10;;
6133;SDS011;3098;42.678;23.364;2022-09-03T12:41:58;6.82;;;3.67;;
6133;SDS011;3098;42.678;23.364;2022-09-03T12:44:28;4.90;;;3.00;;
6133;SDS011;3098;42.678;23.364;2022-09-03T12:47:01;4.63;;;3.10;;
6133;SDS011;3098;42.678;23.364;2022-09-03T12:49:36;6.57;;;4.03;;
6133;SDS011;3098;42.678;23.364;2022-09-03T12:52:06;4.75;;;3.38;;
6133;SDS011;3098;42.678;23.364;2022-09-03T12:54:43;4.55;;;3.17;;
6133;SDS011;3098;42.678;23.364;2022-09-03T12:57:19;5.22;;;3.22;;
6133;SDS011;3098;42.678;23.364;2022-09-03T12:59:48;5.50;;;3.28;;
6133;SDS011;3098;42.678;23.364;2022-09-03T13:02:21;4.65;;;3.20;;
6133;SDS011;3098;42.678;23.364;2022-09-03T13:04:51;5.10;;;3.33;;
6133;SDS011;3098;42.678;23.364;2022-09-03T13:07:21;5.15;;;2.85;;
6133;SDS011;3098;42.678;23.364;2022-09-03T13:09:57;4.15;;;2.65;;
6133;SDS011;3098;42.678;23.364;2022-09-03T13:12:30;2.75;;;2.22;;
6133;SDS011;3098;42.678;23.364;2022-09-03T13:15:04;3.33;;;2.22;;
6133;SDS011;3098;42.678;23.364;2022-09-03T13:17:46;4.05;;;2.88;;
6133;SDS011;3098;42.678;23.364;2022-09-03T13:20:28;4.45;;;2.67;;
6133;SDS011;3098;42.678;23.364;2022-09-03T13:26:08;4.35;;;2.60;;
6133;SDS011;3098;42.678;23.364;2022-09-03T13:28:51;4.10;;;2.90;;
6133;SDS011;3098;42.678;23.364;2022-09-03T13:31:32;4.78;;;2.95;;
6133;SDS011;3098;42.678;23.364;2022-09-03T13:34:06;5.47;;;2.50;;
6133;SDS011;3098;42.678;23.364;2022-09-03T13:36:39;4.90;;;2.90;;
6133;SDS011;3098;42.678;23.364;2022-09-03T13:39:17;4.75;;;3.05;;
6133;SDS011;3098;42.678;23.364;2022-09-03T13:41:53;3.92;;;2.63;;
6133;SDS011;3098;42.678;23.364;2022-09-03T13:44:33;4.30;;;2.70;;
6133;SDS011;3098;42.678;23.364;2022-09-03T13:47:07;3.63;;;2.35;;
6133;SDS011;3098;42.678;23.364;2022-09-03T13:49:39;2.25;;;1.85;;
6133;SDS011;3098;42.678;23.364;2022-09-03T13:52:29;4.53;;;2.17;;
6133;SDS011;3098;42.678;23.364;2022-09-03T13:55:01;3.13;;;2.15;;
6133;SDS011;3098;42.678;23.364;2022-09-03T13:57:38;3.45;;;2.33;;
6133;SDS011;3098;42.678;23.364;2022-09-03T14:00:21;3.75;;;2.40;;
6133;SDS011;3098;42.678;23.364;2022-09-03T14:02:51;4.32;;;3.00;;
6133;SDS011;3098;42.678;23.364;2022-09-03T14:05:24;2.33;;;1.75;;
6133;SDS011;3098;42.678;23.364;2022-09-03T14:08:11;3.30;;;2.33;;
6133;SDS011;3098;42.678;23.364;2022-09-03T14:10:56;4.50;;;2.70;;
6133;SDS011;3098;42.678;23.364;2022-09-03T14:13:45;2.70;;;1.98;;
6133;SDS011;3098;42.678;23.364;2022-09-03T14:16:23;5.97;;;2.13;;
6133;SDS011;3098;42.678;23.364;2022-09-03T14:19:00;3.85;;;2.40;;
6133;SDS011;3098;42.678;23.364;2022-09-03T14:21:38;3.63;;;2.40;;
6133;SDS011;3098;42.678;23.364;2022-09-03T14:24:11;4.25;;;2.72;;
6133;SDS011;3098;42.678;23.364;2022-09-03T14:26:48;5.32;;;2.40;;
6133;SDS011;3098;42.678;23.364;2022-09-03T14:29:20;3.40;;;2.40;;
6133;SDS011;3098;42.678;23.364;2022-09-03T14:34:49;3.80;;;2.58;;
6133;SDS011;3098;42.678;23.364;2022-09-03T14:37:38;3.88;;;2.50;;
6133;SDS011;3098;42.678;23.364;2022-09-03T14:40:21;3.72;;;2.65;;
6133;SDS011;3098;42.678;23.364;2022-09-03T14:42:58;5.20;;;3.35;;
6133;SDS011;3098;42.678;23.364;2022-09-03T14:45:43;3.88;;;2.80;;
6133;SDS011;3098;42.678;23.364;2022-09-03T14:48:34;4.30;;;2.70;;
6133;SDS011;3098;42.678;23.364;2022-09-03T14:51:17;5.00;;;2.95;;
6133;SDS011;3098;42.678;23.364;2022-09-03T14:54:00;3.13;;;2.22;;
6133;SDS011;3098;42.678;23.364;2022-09-03T14:56:53;2.47;;;2.28;;
6133;SDS011;3098;42.678;23.364;2022-09-03T14:59:44;4.38;;;2.35;;
6133;SDS011;3098;42.678;23.364;2022-09-03T15:02:37;3.75;;;2.63;;
6133;SDS011;3098;42.678;23.364;2022-09-03T15:05:14;3.17;;;2.25;;
6133;SDS011;3098;42.678;23.364;2022-09-03T15:07:54;5.93;;;2.55;;
6133;SDS011;3098;42.678;23.364;2022-09-03T15:10:26;3.45;;;2.50;;
6133;SDS011;3098;42.678;23.364;2022-09-03T15:13:06;4.55;;;2.88;;
6133;SDS011;3098;42.678;23.364;2022-09-03T15:15:44;4.78;;;2.47;;
6133;SDS011;3098;42.678;23.364;2022-09-03T15:18:24;5.15;;;2.78;;
6133;SDS011;3098;42.678;23.364;2022-09-03T15:20:59;2.60;;;2.22;;
6133;SDS011;3098;42.678;23.364;2022-09-03T15:23:47;5.18;;;2.70;;
6133;SDS011;3098;42.678;23.364;2022-09-03T15:26:30;6.85;;;3.65;;
6133;SDS011;3098;42.678;23.364;2022-09-03T15:29:18;3.45;;;2.53;;
6133;SDS011;3098;42.678;23.364;2022-09-03T15:31:58;3.63;;;2.30;;
6133;SDS011;3098;42.678;23.364;2022-09-03T15:34:41;3.85;;;2.35;;
6133;SDS011;3098;42.678;23.364;2022-09-03T15:37:20;3.63;;;2.90;;
6133;SDS011;3098;42.678;23.364;2022-09-03T15:39:57;4.00;;;3.15;;
6133;SDS011;3098;42.678;23.364;2022-09-03T15:42:28;5.32;;;3.22;;
6133;SDS011;3098;42.678;23.364;2022-09-03T15:44:59;4.82;;;3.42;;
6133;SDS011;3098;42.678;23.364;2022-09-03T15:47:31;4.30;;;3.03;;
6133;SDS011;3098;42.678;23.364;2022-09-03T15:50:14;4.40;;;3.15;;
6133;SDS011;3098;42.678;23.364;2022-09-03T15:52:52;7.45;;;3.30;;
6133;SDS011;3098;42.678;23.364;2022-09-03T15:55:23;4.03;;;3.20;;